Impacts TAF Board INFO
FOR SITUATIONAL AWARENESS. NOT TO BE USED FOR FLIGHT PLANNING PURPOSES.
IDs:

KSTL - St Louis/Lambert Int, MO, US

Issued at 0530 UTC 17 Dec 2017
Updated at 0553 UTC 17 Dec 2017
Potential Impact None Slight Moderate High
Time<<18/06Z 18/07Z 18/08Z 18/09Z 18/10Z 18/11Z 18/12Z 18/13Z 18/14Z 18/15Z 18/16Z 18/17Z 18/18Z
Type PRVL PRVL PRVL PRVL PRVL PRVL
VIS 6 6 6 6 6 6
CIG 25 25 25 25 25 25
Cover BKN BKN BKN BKN BKN BKN
FltCat MVFR MVFR MVFR MVFR MVFR MVFR
WX BR BR BR BR BR BR
WDir 200 200 200 200 200 200
WSpd 5 5 5 5 5 5
WGst -- -- -- -- -- --

Raw TAF
KSTL 170530Z 1706/1812 19006KT P6SM OVC250
  FM170900 19006KT P6SM OVC110
  FM171300 19006KT P6SM -RA OVC050
  FM171700 19008KT P6SM OVC015
  FM180200 20005KT 6SM BR BKN025


METAR Board
Radar Display
Forecast Discussion

FOR SITUATIONAL AWARENESS. NOT TO BE USED FOR FLIGHT PLANNING PURPOSES.